Time;durP1;ratioP1;P1;durP2;ratioP2;P2;SDS_P1;SDS_P2;PMS_P1;PMS_P2;Temp;Humidity;BMP_temperature;BMP_pressure;BME280_temperature;BME280_humidity;BME280_pressure;Samples;Min_cycle;Max_cycle;Signal;HPM_P1;HPM_P2
2021/08/21 00:01:19;;;;;;;6.60;4.55;;;14.60;99.90;;;;;;5109483;28;20487;-76
2021/08/21 00:03:44;;;;;;;9.43;3.80;;;14.60;99.90;;;;;;5109913;28;20771;-76
2021/08/21 00:06:10;;;;;;;7.22;4.38;;;14.50;99.90;;;;;;5109369;28;20046;-76
2021/08/21 00:08:36;;;;;;;6.30;4.47;;;14.50;99.90;;;;;;5109671;28;20032;-76
2021/08/21 00:11:02;;;;;;;5.28;4.03;;;14.40;99.90;;;;;;5109381;28;20066;-76
2021/08/21 00:13:28;;;;;;;6.60;4.05;;;14.40;99.90;;;;;;5109762;28;20031;-76
2021/08/21 00:15:53;;;;;;;6.13;4.55;;;14.40;99.90;;;;;;5109689;28;20039;-76
2021/08/21 00:18:19;;;;;;;6.95;4.38;;;14.40;99.90;;;;;;5109299;28;20027;-76
2021/08/21 00:20:45;;;;;;;4.78;3.83;;;14.40;99.90;;;;;;5090820;28;20032;-76
2021/08/21 00:23:11;;;;;;;7.05;4.47;;;14.30;99.90;;;;;;5108896;28;20027;-76
2021/08/21 00:25:36;;;;;;;7.85;5.10;;;14.30;99.90;;;;;;5109402;28;20626;-76
2021/08/21 00:28:02;;;;;;;5.55;4.10;;;14.30;99.90;;;;;;5108649;28;20126;-76
2021/08/21 00:30:28;;;;;;;8.35;4.50;;;14.20;99.90;;;;;;5109337;28;20465;-76
2021/08/21 00:32:54;;;;;;;7.28;4.30;;;14.20;99.90;;;;;;5108705;28;20056;-76
2021/08/21 00:35:19;;;;;;;5.78;4.65;;;14.20;99.90;;;;;;5108950;28;20102;-75
2021/08/21 00:37:45;;;;;;;5.82;4.38;;;14.10;99.90;;;;;;5109149;28;20092;-76
2021/08/21 00:40:12;;;;;;;7.80;4.75;;;14.10;99.90;;;;;;5092979;27;20028;-76
2021/08/21 00:42:38;;;;;;;6.30;4.95;;;14.10;99.90;;;;;;5129499;27;20039;-76
2021/08/21 00:45:05;;;;;;;7.03;5.03;;;14.10;99.90;;;;;;5128637;27;20037;-76
2021/08/21 00:47:30;;;;;;;6.60;4.30;;;14.10;99.90;;;;;;5108324;28;20103;-76
2021/08/21 00:49:56;;;;;;;11.50;4.75;;;14.10;99.90;;;;;;5108782;28;20032;-76
2021/08/21 00:52:26;;;;;;;9.18;4.82;;;14.10;99.90;;;;;;5108290;28;20111;-76
2021/08/21 00:54:55;;;;;;;8.77;4.72;;;14.00;99.90;;;;;;5108922;28;20073;-76
2021/08/21 00:57:22;;;;;;;7.68;4.68;;;14.00;99.90;;;;;;5107998;28;20016;-75
2021/08/21 00:59:51;;;;;;;6.93;4.55;;;14.00;99.90;;;;;;5107888;28;20110;-76
2021/08/21 01:02:17;;;;;;;10.07;5.25;;;14.00;99.90;;;;;;5108204;28;20111;-76
2021/08/21 01:04:49;;;;;;;6.40;4.97;;;13.90;99.90;;;;;;5108503;28;20229;-76
2021/08/21 01:07:19;;;;;;;5.85;4.78;;;13.90;99.90;;;;;;5108240;28;20031;-76
2021/08/21 01:09:45;;;;;;;7.35;5.50;;;13.90;99.90;;;;;;5108733;28;20035;-76
2021/08/21 01:12:17;;;;;;;7.50;5.68;;;13.90;99.90;;;;;;5108102;28;20088;-76
2021/08/21 01:14:44;;;;;;;7.57;4.43;;;13.80;99.90;;;;;;5108221;28;20098;-76
2021/08/21 01:17:11;;;;;;;7.72;4.95;;;13.80;99.90;;;;;;5108117;28;20059;-76
2021/08/21 01:19:40;;;;;;;7.53;4.38;;;13.80;99.90;;;;;;5108336;28;20073;-76
2021/08/21 01:22:12;;;;;;;9.73;4.75;;;13.80;99.90;;;;;;5089490;28;20365;-76
2021/08/21 01:24:39;;;;;;;6.38;4.70;;;13.80;99.90;;;;;;5108032;28;20031;-76
2021/08/21 01:27:05;;;;;;;6.80;4.97;;;13.70;99.90;;;;;;5108004;28;20061;-76
2021/08/21 01:29:31;;;;;;;6.55;4.15;;;13.70;99.90;;;;;;5107844;28;20039;-75
2021/08/21 01:31:56;;;;;;;6.90;4.85;;;13.60;99.90;;;;;;5107897;28;20035;-76
2021/08/21 01:34:22;;;;;;;8.07;4.80;;;13.60;99.90;;;;;;5108103;28;20023;-75
2021/08/21 01:36:50;;;;;;;7.38;4.50;;;13.60;99.90;;;;;;5107591;28;20032;-75
2021/08/21 01:39:17;;;;;;;7.57;4.82;;;13.50;99.90;;;;;;5108243;28;20110;-75
2021/08/21 01:41:43;;;;;;;8.80;4.93;;;13.50;99.90;;;;;;5107986;28;20035;-76
2021/08/21 01:44:13;;;;;;;6.63;5.10;;;13.50;99.90;;;;;;5108191;28;20024;-76
2021/08/21 01:46:39;;;;;;;8.98;4.70;;;13.40;99.90;;;;;;5108232;28;20031;-76
2021/08/21 01:49:08;;;;;;;9.90;4.82;;;13.40;99.90;;;;;;5107610;28;20041;-76
2021/08/21 01:51:41;;;;;;;7.70;4.93;;;13.40;99.90;;;;;;5089600;28;20446;-76
2021/08/21 01:54:08;;;;;;;6.60;4.47;;;13.40;99.90;;;;;;5108309;28;20012;-76
2021/08/21 01:56:45;;;;;;;7.32;5.00;;;13.30;99.90;;;;;;5110379;28;20070;-75
2021/08/21 01:59:26;;;;;;;9.95;5.28;;;13.30;99.90;;;;;;5112122;28;20410;-76
2021/08/21 02:01:53;;;;;;;6.00;5.15;;;13.30;99.90;;;;;;5111784;28;20391;-76
2021/08/21 02:04:20;;;;;;;8.25;5.15;;;13.30;99.90;;;;;;5111880;28;20047;-76
2021/08/21 02:06:45;;;;;;;6.18;4.70;;;13.30;99.90;;;;;;5111966;28;20070;-76
2021/08/21 02:09:18;;;;;;;8.43;4.63;;;13.30;99.90;;;;;;5090208;28;20410;-76
2021/08/21 02:11:45;;;;;;;7.28;4.90;;;13.30;99.90;;;;;;5083722;28;20403;-75
2021/08/21 02:14:12;;;;;;;8.45;4.90;;;13.30;99.90;;;;;;5112145;28;20130;-76
2021/08/21 02:16:37;;;;;;;7.20;4.68;;;13.30;99.90;;;;;;5111986;28;20422;-76
2021/08/21 02:19:03;;;;;;;10.05;4.97;;;13.20;99.90;;;;;;5079474;28;20028;-76
2021/08/21 02:21:29;;;;;;;7.95;4.88;;;13.20;99.90;;;;;;5115705;28;20054;-76
2021/08/21 02:23:57;;;;;;;9.15;5.05;;;13.20;99.90;;;;;;5115272;28;20107;-76
2021/08/21 02:26:24;;;;;;;6.93;4.53;;;13.20;99.90;;;;;;5115712;28;20025;-76
2021/08/21 02:28:49;;;;;;;7.38;5.30;;;13.20;99.90;;;;;;5116981;27;20023;-76
2021/08/21 02:31:15;;;;;;;7.65;4.50;;;13.20;99.90;;;;;;5115160;28;20134;-76
2021/08/21 02:33:40;;;;;;;6.72;4.40;;;13.20;99.90;;;;;;5114562;28;20079;-75
2021/08/21 02:36:06;;;;;;;8.40;5.00;;;13.20;99.90;;;;;;5115695;28;20032;-75
2021/08/21 02:38:32;;;;;;;8.23;5.13;;;13.20;99.90;;;;;;5114940;28;20050;-76
2021/08/21 02:40:57;;;;;;;7.80;5.30;;;13.20;99.90;;;;;;5115692;28;20095;-75
2021/08/21 02:43:23;;;;;;;10.77;5.18;;;13.10;99.90;;;;;;5115171;28;20426;-75
2021/08/21 02:45:49;;;;;;;7.07;4.80;;;13.10;99.90;;;;;;5096962;28;20467;-76
2021/08/21 02:48:15;;;;;;;6.43;5.00;;;13.10;99.90;;;;;;5114734;28;20059;-76
2021/08/21 02:50:41;;;;;;;8.00;5.35;;;13.20;99.90;;;;;;5114806;28;20027;-76
2021/08/21 02:53:07;;;;;;;5.63;4.63;;;13.10;99.90;;;;;;5113949;28;20023;-76
2021/08/21 02:55:33;;;;;;;6.18;4.63;;;13.10;99.90;;;;;;5114621;28;20027;-76
2021/08/21 02:57:58;;;;;;;6.22;5.40;;;13.10;99.90;;;;;;5114562;28;20023;-76
2021/08/21 03:00:24;;;;;;;7.35;5.50;;;13.10;99.90;;;;;;5093584;28;20679;-76
2021/08/21 03:02:49;;;;;;;8.77;4.80;;;13.10;99.90;;;;;;5110690;28;20697;-76
2021/08/21 03:05:15;;;;;;;6.97;5.40;;;13.10;99.90;;;;;;5110558;28;20051;-76
2021/08/21 03:07:41;;;;;;;8.88;5.82;;;13.20;99.90;;;;;;5110805;28;20076;-76
2021/08/21 03:10:07;;;;;;;6.82;5.22;;;13.10;99.90;;;;;;5110487;28;20028;-76
2021/08/21 03:12:33;;;;;;;14.25;5.22;;;13.10;99.90;;;;;;5092120;28;20024;-76
2021/08/21 03:14:59;;;;;;;11.43;5.32;;;13.10;99.90;;;;;;5110600;28;20057;-76
2021/08/21 03:17:25;;;;;;;6.75;5.25;;;13.10;99.90;;;;;;5110610;28;20020;-76
2021/08/21 03:19:51;;;;;;;6.53;4.82;;;13.10;99.90;;;;;;5103684;28;20053;-75
2021/08/21 03:22:17;;;;;;;7.05;4.72;;;13.10;99.90;;;;;;5110571;28;20062;-76
2021/08/21 03:24:43;;;;;;;8.00;4.97;;;13.10;99.90;;;;;;5110479;28;20078;-76
2021/08/21 03:27:09;;;;;;;6.60;4.88;;;13.10;99.90;;;;;;5091297;28;20436;-76
2021/08/21 03:29:34;;;;;;;6.30;4.82;;;13.10;99.90;;;;;;5110346;28;20380;-76
2021/08/21 03:32:00;;;;;;;8.43;5.68;;;13.10;99.90;;;;;;5109958;28;20038;-76
2021/08/21 03:34:25;;;;;;;11.02;5.43;;;13.00;99.90;;;;;;5109916;28;20022;-76
2021/08/21 03:36:52;;;;;;;7.00;5.35;;;13.00;99.90;;;;;;5109782;28;20106;-76
2021/08/21 03:39:18;;;;;;;9.07;4.43;;;13.00;99.90;;;;;;5110049;28;20027;-76
2021/08/21 03:41:43;;;;;;;9.70;5.10;;;13.00;99.90;;;;;;5109991;28;20035;-76
2021/08/21 03:44:09;;;;;;;9.30;5.70;;;13.00;99.90;;;;;;5110845;28;20024;-76
2021/08/21 03:46:37;;;;;;;8.13;5.15;;;13.00;99.90;;;;;;5110355;28;20417;-83
2021/08/21 03:49:03;;;;;;;8.52;5.65;;;13.00;99.90;;;;;;5111402;28;20023;-75
2021/08/21 03:51:29;;;;;;;9.35;5.30;;;13.00;99.90;;;;;;5109431;28;20488;-75
2021/08/21 03:53:55;;;;;;;7.63;5.63;;;13.00;99.90;;;;;;5105727;28;20762;-75
2021/08/21 03:56:20;;;;;;;8.52;5.90;;;12.90;99.90;;;;;;5108571;28;20073;-75
2021/08/21 03:58:46;;;;;;;6.95;5.05;;;12.90;99.90;;;;;;5104571;28;20044;-75
2021/08/21 04:01:11;;;;;;;9.93;4.88;;;12.90;99.90;;;;;;5089341;28;20419;-75
2021/08/21 04:03:37;;;;;;;7.53;5.28;;;12.90;99.90;;;;;;5109769;28;20059;-75
2021/08/21 04:06:06;;;;;;;7.03;4.78;;;12.80;99.90;;;;;;5101328;28;20055;-75
2021/08/21 04:08:31;;;;;;;8.30;5.47;;;12.80;99.90;;;;;;5105534;28;20098;-75
2021/08/21 04:10:57;;;;;;;7.38;4.80;;;12.80;99.90;;;;;;5106389;28;20028;-75
2021/08/21 04:13:22;;;;;;;9.82;5.50;;;12.80;99.90;;;;;;5112759;28;20072;-82
2021/08/21 04:15:48;;;;;;;7.43;4.90;;;12.80;99.90;;;;;;5107595;28;20020;-75
2021/08/21 04:18:13;;;;;;;6.95;5.60;;;12.80;99.90;;;;;;5104822;28;20016;-76
2021/08/21 04:20:39;;;;;;;7.68;5.40;;;12.70;99.90;;;;;;5114045;28;20368;-75
2021/08/21 04:23:05;;;;;;;10.88;5.60;;;12.70;99.90;;;;;;5107171;28;20483;-76
2021/08/21 04:25:30;;;;;;;11.25;5.55;;;12.70;99.90;;;;;;5096735;28;20490;-77
2021/08/21 04:27:56;;;;;;;7.80;4.82;;;12.70;99.90;;;;;;5114353;28;20482;-75
2021/08/21 04:30:21;;;;;;;5.80;4.80;;;12.70;99.90;;;;;;5096297;28;20023;-76
2021/08/21 04:32:47;;;;;;;8.32;4.72;;;12.70;99.90;;;;;;5112302;28;20032;-76
2021/08/21 04:35:13;;;;;;;10.18;4.78;;;12.70;99.90;;;;;;5114560;28;20016;-76
2021/08/21 04:37:38;;;;;;;9.85;5.13;;;12.70;99.90;;;;;;5111587;28;20417;-76
2021/08/21 04:40:08;;;;;;;8.82;4.72;;;12.60;99.90;;;;;;5103496;28;20043;-77
2021/08/21 04:42:33;;;;;;;8.43;4.30;;;12.60;99.90;;;;;;5108856;28;20797;-77
2021/08/21 04:44:59;;;;;;;8.40;4.53;;;12.60;99.90;;;;;;5108181;28;20039;-77
2021/08/21 04:47:29;;;;;;;6.88;4.90;;;12.60;99.90;;;;;;5108656;28;20040;-79
2021/08/21 04:49:55;;;;;;;9.57;4.82;;;12.60;99.90;;;;;;5091960;28;20069;-81
2021/08/21 04:52:21;;;;;;;10.38;5.57;;;12.60;99.90;;;;;;5108812;28;20028;-81
2021/08/21 04:54:50;;;;;;;7.55;5.03;;;12.60;99.90;;;;;;5108487;28;20019;-77
2021/08/21 04:57:16;;;;;;;9.45;5.38;;;12.60;99.90;;;;;;5112857;28;20482;-77
2021/08/21 04:59:42;;;;;;;7.10;5.30;;;12.70;99.90;;;;;;5095271;28;20119;-77
2021/08/21 05:02:08;;;;;;;6.40;4.80;;;12.70;99.90;;;;;;5094770;28;20203;-77
2021/08/21 05:04:34;;;;;;;9.35;5.47;;;12.70;99.90;;;;;;5114422;28;20490;-77
2021/08/21 05:06:59;;;;;;;7.38;5.20;;;12.80;99.90;;;;;;5089498;28;20020;-77
2021/08/21 05:09:25;;;;;;;7.53;5.03;;;12.80;99.90;;;;;;5105904;28;20023;-77
2021/08/21 05:11:51;;;;;;;6.93;5.47;;;12.90;99.90;;;;;;5111914;28;20107;-77
2021/08/21 05:14:16;;;;;;;9.40;5.32;;;12.90;99.90;;;;;;5112485;28;20122;-78
2021/08/21 05:16:43;;;;;;;7.03;5.22;;;13.00;99.90;;;;;;5110069;28;20020;-78
2021/08/21 05:19:27;;;;;;;9.68;5.72;;;13.00;99.90;;;;;;5104974;28;20349;-78
2021/08/21 05:21:56;;;;;;;9.48;5.13;;;13.10;99.90;;;;;;5110010;28;20083;-78
2021/08/21 05:24:22;;;;;;;6.43;4.80;;;13.20;99.90;;;;;;5110014;28;20125;-78
2021/08/21 05:26:48;;;;;;;7.35;5.13;;;13.30;99.90;;;;;;5108610;28;20102;-78
2021/08/21 05:29:17;;;;;;;6.38;4.75;;;13.40;99.90;;;;;;5110461;28;20035;-78
2021/08/21 05:31:43;;;;;;;6.88;4.90;;;13.50;99.90;;;;;;5110849;28;20023;-78
2021/08/21 05:34:11;;;;;;;6.88;5.13;;;13.60;99.90;;;;;;5104212;28;20135;-78
2021/08/21 05:36:36;;;;;;;10.15;6.05;;;13.70;99.90;;;;;;5086418;28;20088;-78
2021/08/21 05:39:07;;;;;;;8.65;5.60;;;13.80;99.90;;;;;;5085075;28;20472;-78
2021/08/21 05:41:34;;;;;;;8.15;5.50;;;13.90;99.90;;;;;;5104077;28;20020;-78
2021/08/21 05:44:00;;;;;;;8.00;5.32;;;14.00;99.90;;;;;;5103864;28;20679;-78
2021/08/21 05:46:26;;;;;;;6.25;5.05;;;14.00;99.90;;;;;;5103990;28;20023;-78
2021/08/21 05:48:51;;;;;;;9.43;5.45;;;14.10;99.90;;;;;;5104296;28;20028;-77
2021/08/21 05:51:17;;;;;;;5.88;4.75;;;14.20;99.90;;;;;;5086379;28;20027;-78
2021/08/21 05:53:42;;;;;;;14.07;5.28;;;14.40;99.90;;;;;;5097859;28;20027;-77
2021/08/21 05:56:08;;;;;;;10.30;5.63;;;14.40;99.90;;;;;;5113094;28;20467;-77
2021/08/21 05:58:36;;;;;;;9.65;5.60;;;14.50;99.90;;;;;;5112798;28;20029;-77
2021/08/21 06:01:02;;;;;;;8.43;5.35;;;14.60;99.90;;;;;;5113605;28;20018;-77
2021/08/21 06:03:28;;;;;;;7.90;5.32;;;14.70;99.90;;;;;;5092492;28;20115;-78
2021/08/21 06:05:54;;;;;;;5.50;4.50;;;14.80;99.90;;;;;;5110870;28;20384;-77
2021/08/21 06:08:19;;;;;;;13.82;6.10;;;15.00;99.90;;;;;;5113362;28;20061;-78
2021/08/21 06:10:45;;;;;;;6.22;5.32;;;15.10;99.90;;;;;;5113375;28;20028;-77
2021/08/21 06:13:13;;;;;;;7.45;4.95;;;15.30;99.90;;;;;;5113268;28;20531;-77
2021/08/21 06:15:44;;;;;;;7.07;5.25;;;15.40;99.90;;;;;;5089470;28;20139;-78
2021/08/21 06:18:10;;;;;;;8.52;5.43;;;15.50;99.90;;;;;;5105600;28;20103;-78
2021/08/21 06:20:36;;;;;;;8.38;5.53;;;15.60;99.90;;;;;;5094213;28;20107;-78
2021/08/21 06:23:02;;;;;;;8.38;5.18;;;15.80;99.90;;;;;;5087943;28;20028;-78
2021/08/21 06:25:31;;;;;;;6.32;5.03;;;15.90;99.90;;;;;;5106289;28;20403;-78
2021/08/21 06:27:58;;;;;;;8.32;5.72;;;16.00;99.90;;;;;;5087669;28;20067;-78
2021/08/21 06:30:23;;;;;;;8.93;5.30;;;16.10;99.90;;;;;;5105913;28;20631;-78
2021/08/21 06:32:49;;;;;;;7.70;5.70;;;16.20;99.90;;;;;;5106309;28;20042;-78
2021/08/21 06:35:16;;;;;;;8.30;5.18;;;16.30;99.90;;;;;;5106475;28;20444;-78
2021/08/21 06:37:42;;;;;;;8.05;6.15;;;16.40;99.90;;;;;;5105915;28;20036;-78
2021/08/21 06:40:08;;;;;;;7.03;5.53;;;16.50;99.90;;;;;;5105569;28;20042;-79
2021/08/21 06:42:34;;;;;;;7.45;4.93;;;16.70;99.90;;;;;;5105453;28;20056;-79
2021/08/21 06:45:00;;;;;;;7.65;5.45;;;16.80;99.90;;;;;;5105713;28;20364;-79
2021/08/21 06:47:27;;;;;;;7.95;5.45;;;16.90;99.90;;;;;;5087429;28;20688;-79
2021/08/21 06:49:53;;;;;;;8.38;5.63;;;17.00;99.90;;;;;;5106333;28;20046;-79
2021/08/21 06:52:22;;;;;;;7.18;5.50;;;17.00;99.90;;;;;;5106042;28;20487;-78
2021/08/21 06:54:48;;;;;;;9.38;5.70;;;17.10;99.90;;;;;;5106418;28;20797;-78
2021/08/21 06:57:14;;;;;;;6.22;5.00;;;17.20;99.90;;;;;;5106326;28;20034;-78
2021/08/21 06:59:39;;;;;;;7.00;5.25;;;17.30;99.90;;;;;;5087598;28;20686;-78
2021/08/21 07:02:05;;;;;;;7.43;5.53;;;17.40;99.90;;;;;;5109157;28;20486;-78
2021/08/21 07:04:31;;;;;;;8.90;5.72;;;17.40;99.90;;;;;;5103548;28;20051;-78
2021/08/21 07:06:57;;;;;;;9.93;5.40;;;17.50;99.90;;;;;;5106104;28;20043;-78
2021/08/21 07:09:23;;;;;;;7.82;5.03;;;17.60;99.90;;;;;;5090404;28;20051;-78
2021/08/21 07:11:49;;;;;;;7.72;4.80;;;17.70;99.90;;;;;;5109805;28;20050;-79
2021/08/21 07:14:15;;;;;;;6.50;4.85;;;17.70;99.90;;;;;;5110236;28;20157;-79
2021/08/21 07:16:41;;;;;;;6.97;5.00;;;17.80;99.90;;;;;;5109797;28;20054;-79
2021/08/21 07:19:07;;;;;;;6.45;4.97;;;17.90;99.90;;;;;;5103909;28;20035;-78
2021/08/21 07:21:34;;;;;;;7.13;4.95;;;18.00;99.90;;;;;;5107397;28;20035;-78
2021/08/21 07:23:59;;;;;;;8.63;5.40;;;18.10;99.90;;;;;;5107021;28;20027;-78
2021/08/21 07:26:25;;;;;;;7.05;5.05;;;18.20;99.90;;;;;;5107104;28;20035;-78
2021/08/21 07:28:51;;;;;;;6.45;4.88;;;18.30;99.90;;;;;;5106108;28;20024;-79
2021/08/21 07:31:16;;;;;;;7.00;5.50;;;18.40;99.90;;;;;;5106857;28;20020;-78
2021/08/21 07:33:42;;;;;;;6.93;4.90;;;18.50;99.90;;;;;;5106061;28;20046;-78
2021/08/21 07:36:08;;;;;;;7.85;4.88;;;18.60;99.90;;;;;;5106478;28;20036;-78
2021/08/21 07:38:33;;;;;;;6.65;4.90;;;18.70;99.90;;;;;;5105346;28;20070;-78
2021/08/21 07:41:00;;;;;;;8.43;5.35;;;18.80;99.90;;;;;;5105870;28;20034;-78
2021/08/21 07:43:29;;;;;;;6.22;5.05;;;18.90;99.90;;;;;;5106331;28;20031;-78
2021/08/21 07:45:55;;;;;;;6.30;5.07;;;19.00;99.90;;;;;;5087151;28;20036;-78
2021/08/21 07:48:21;;;;;;;7.22;5.13;;;19.10;99.90;;;;;;5105972;28;20026;-78
2021/08/21 07:50:49;;;;;;;8.20;4.97;;;19.20;99.90;;;;;;5106140;28;20040;-78
2021/08/21 07:53:15;;;;;;;5.70;4.68;;;19.20;99.90;;;;;;5105913;28;20073;-78
2021/08/21 07:55:40;;;;;;;6.53;5.20;;;19.30;99.90;;;;;;5105736;28;20035;-78
2021/08/21 07:58:06;;;;;;;8.15;5.38;;;19.40;99.90;;;;;;5105944;28;20028;-78
2021/08/21 08:00:33;;;;;;;7.30;5.30;;;19.50;99.90;;;;;;5087278;28;20035;-78
2021/08/21 08:03:00;;;;;;;7.38;4.63;;;19.60;99.90;;;;;;5105551;28;20039;-78
2021/08/21 08:05:26;;;;;;;8.13;5.13;;;19.70;99.90;;;;;;5112043;28;20471;-77
2021/08/21 08:07:51;;;;;;;6.70;5.10;;;19.80;99.90;;;;;;5114570;28;20080;-78
2021/08/21 08:10:17;;;;;;;6.55;4.97;;;19.90;99.90;;;;;;5105413;28;20111;-78
2021/08/21 08:12:46;;;;;;;6.18;4.80;;;20.00;99.90;;;;;;5105820;28;20073;-78
2021/08/21 08:15:11;;;;;;;6.78;4.07;;;20.10;99.90;;;;;;5089978;28;20106;-77
2021/08/21 08:17:39;;;;;;;6.68;4.82;;;20.20;99.90;;;;;;5114344;28;20095;-77
2021/08/21 08:20:06;;;;;;;5.60;4.57;;;20.40;99.90;;;;;;5114903;28;20077;-77
2021/08/21 08:22:33;;;;;;;6.32;4.70;;;20.50;99.90;;;;;;5115123;28;20472;-77
2021/08/21 08:24:59;;;;;;;5.60;4.47;;;20.60;99.90;;;;;;5115132;28;20114;-77
2021/08/21 08:27:25;;;;;;;6.82;4.80;;;20.70;99.90;;;;;;5115014;28;20027;-77
2021/08/21 08:29:51;;;;;;;9.13;5.30;;;20.80;99.90;;;;;;5109038;27;20027;-77
2021/08/21 08:32:16;;;;;;;6.50;4.65;;;20.80;99.90;;;;;;5131155;27;20063;-77
2021/08/21 08:34:42;;;;;;;6.82;4.80;;;20.90;99.90;;;;;;5114952;28;20019;-77
2021/08/21 08:37:12;;;;;;;7.18;4.63;;;21.00;99.90;;;;;;5115177;28;20023;-77
2021/08/21 08:39:38;;;;;;;6.07;4.95;;;21.10;99.90;;;;;;5115001;28;20485;-77
2021/08/21 08:42:05;;;;;;;6.07;4.95;;;21.20;99.90;;;;;;5096356;28;20348;-77
2021/08/21 08:44:35;;;;;;;9.23;4.80;;;21.20;99.90;;;;;;5114358;28;20028;-77
2021/08/21 08:47:01;;;;;;;5.60;5.00;;;21.30;99.90;;;;;;5096387;28;20030;-77
2021/08/21 08:49:28;;;;;;;7.82;5.65;;;21.50;99.90;;;;;;5114686;28;20030;-77
2021/08/21 08:51:54;;;;;;;7.03;4.88;;;21.50;99.90;;;;;;5114549;28;20028;-77
2021/08/21 08:54:20;;;;;;;6.30;4.95;;;21.70;99.90;;;;;;5114790;28;20028;-77
2021/08/21 08:56:45;;;;;;;7.60;4.53;;;21.70;99.90;;;;;;5114706;28;20024;-77
2021/08/21 08:59:11;;;;;;;6.60;4.70;;;21.80;99.90;;;;;;5113060;28;20431;-79
2021/08/21 09:01:40;;;;;;;6.18;4.75;;;21.90;99.90;;;;;;5104724;28;20032;-79
2021/08/21 09:04:21;;;;;;;6.55;4.75;;;22.00;99.90;;;;;;5104510;28;20075;-79
2021/08/21 09:06:47;;;;;;;8.25;4.32;;;22.20;99.90;;;;;;5104534;28;20086;-78
2021/08/21 09:09:17;;;;;;;7.88;4.30;;;22.40;99.90;;;;;;5086859;28;20049;-80
2021/08/21 09:11:54;;;;;;;6.18;4.60;;;22.50;99.90;;;;;;5087166;28;20084;-80
2021/08/21 09:14:27;;;;;;;6.30;4.43;;;22.60;99.90;;;;;;5106381;28;20034;-80
2021/08/21 09:17:12;;;;;;;7.60;5.43;;;22.80;99.90;;;;;;5105830;28;20020;-79
2021/08/21 09:19:37;;;;;;;;;;;22.90;99.90;;;;;;5100913;28;20052;-79
2021/08/21 09:22:06;;;;;;;6.78;4.55;;;23.00;99.90;;;;;;5105029;28;19990;-79
2021/08/21 09:24:33;;;;;;;8.50;4.82;;;23.20;99.90;;;;;;5086678;28;20080;-79
2021/08/21 09:27:27;;;;;;;5.90;4.50;;;23.40;99.90;;;;;;5104609;28;20110;-79
2021/08/21 09:30:13;;;;;;;8.52;4.43;;;23.40;99.90;;;;;;5085112;28;20024;-79
2021/08/21 09:32:40;;;;;;;7.30;4.82;;;23.60;99.90;;;;;;5073195;28;20035;-79
2021/08/21 09:35:08;;;;;;;5.22;3.88;;;23.70;99.90;;;;;;5104678;28;20042;-79
2021/08/21 09:37:46;;;;;;;7.25;5.05;;;23.70;99.90;;;;;;5103842;28;20027;-79
2021/08/21 09:40:28;;;;;;;6.78;4.75;;;23.90;99.90;;;;;;5104758;28;20110;-80
2021/08/21 09:42:55;;;;;;;5.30;4.60;;;23.90;99.90;;;;;;5092208;28;20596;-79
2021/08/21 09:45:21;;;;;;;8.60;4.80;;;24.00;99.90;;;;;;5085773;28;20674;-79
2021/08/21 09:47:47;;;;;;;7.22;4.63;;;24.10;99.90;;;;;;5104052;28;20038;-79
2021/08/21 09:50:19;;;;;;;6.68;4.65;;;24.10;99.90;;;;;;5104604;28;20027;-79
2021/08/21 09:52:48;;;;;;;6.00;4.78;;;24.10;99.90;;;;;;5104720;28;20062;-79
2021/08/21 09:55:19;;;;;;;6.35;4.68;;;24.30;99.90;;;;;;5104851;28;20027;-78
2021/08/21 09:58:20;;;;;;;7.07;4.18;;;24.50;99.90;;;;;;5103731;28;20027;-79
2021/08/21 10:00:47;;;;;;;6.53;4.30;;;24.80;99.90;;;;;;5040224;28;20032;-79
2021/08/21 10:03:15;;;;;;;6.90;4.38;;;25.00;99.90;;;;;;5111042;27;20422;-79
2021/08/21 10:05:47;;;;;;;5.88;4.00;;;25.20;99.90;;;;;;5104214;28;20057;-78
2021/08/21 10:08:14;;;;;;;7.40;4.35;;;25.30;99.90;;;;;;5103719;28;20027;-79
2021/08/21 10:10:49;;;;;;;6.68;4.50;;;25.60;99.90;;;;;;5085614;28;20043;-79
2021/08/21 10:13:24;;;;;;;;;;;25.80;99.90;;;;;;5104256;28;20067;-79
2021/08/21 10:15:50;;;;;;;;;;;25.80;99.90;;;;;;5104241;28;19907;-79
2021/08/21 10:18:18;;;;;;;7.22;4.05;;;25.80;99.90;;;;;;5099610;28;20287;-79
2021/08/21 10:20:43;;;;;;;6.03;4.13;;;25.90;99.90;;;;;;5103918;28;20032;-80
2021/08/21 10:23:13;;;;;;;6.55;3.90;;;25.90;99.90;;;;;;5103646;28;20093;-79
2021/08/21 10:26:07;;;;;;;6.13;4.10;;;26.10;99.90;;;;;;5103889;28;20107;-79
2021/08/21 10:28:40;;;;;;;6.57;4.22;;;26.10;99.90;;;;;;5106273;28;20101;-77
2021/08/21 10:31:06;;;;;;;5.63;3.88;;;26.20;99.90;;;;;;5113451;28;20476;-77
2021/08/21 10:33:55;;;;;;;5.25;3.90;;;26.20;99.90;;;;;;5112982;28;20023;-77
2021/08/21 10:36:48;;;;;;;6.22;4.05;;;26.40;99.90;;;;;;5097592;28;20124;-78
2021/08/21 10:39:30;;;;;;;6.13;4.05;;;26.50;99.90;;;;;;5112855;28;20016;-78
2021/08/21 10:41:56;;;;;;;5.55;4.50;;;26.60;99.90;;;;;;5116047;28;20023;-78
2021/08/21 10:44:43;;;;;;;7.15;4.30;;;26.90;99.90;;;;;;5116510;28;20031;-79
2021/08/21 10:47:40;;;;;;;5.13;3.83;;;27.10;99.90;;;;;;5116615;28;20451;-77
2021/08/21 10:50:29;;;;;;;4.93;3.97;;;27.10;99.90;;;;;;5071913;28;20066;-77
2021/08/21 10:52:56;;;;;;;5.85;4.00;;;27.40;99.90;;;;;;5117178;28;20024;-78
2021/08/21 10:55:28;;;;;;;5.95;3.58;;;27.40;99.90;;;;;;5098510;28;20020;-77
2021/08/21 10:57:58;;;;;;;4.55;3.88;;;27.40;99.90;;;;;;5116763;28;20034;-77
2021/08/21 11:00:50;;;;;;;7.40;5.30;;;27.40;99.90;;;;;;5113618;28;20032;-80
2021/08/21 11:03:25;;;;;;;6.22;3.70;;;27.30;99.90;;;;;;5112012;28;20463;-80
2021/08/21 11:06:07;;;;;;;7.50;3.53;;;27.40;99.90;;;;;;5093062;28;20158;-80
2021/08/21 11:08:39;;;;;;;4.28;3.47;;;27.60;99.90;;;;;;5115600;28;20032;-77
2021/08/21 11:11:07;;;;;;;5.35;3.70;;;27.80;99.90;;;;;;5116563;28;20099;-77
2021/08/21 11:14:11;;;;;;;5.82;3.42;;;27.70;99.90;;;;;;5116438;28;20371;-77
2021/08/21 11:16:46;;;;;;;6.40;3.40;;;28.00;99.90;;;;;;5116714;28;20011;-78
2021/08/21 11:19:13;;;;;;;4.93;3.53;;;28.20;99.90;;;;;;5116532;28;20070;-77
2021/08/21 11:21:39;;;;;;;9.23;3.90;;;28.10;99.90;;;;;;5116393;28;20077;-77
2021/08/21 11:24:27;;;;;;;4.80;3.75;;;28.00;99.90;;;;;;5116561;28;20027;-77
2021/08/21 11:27:24;;;;;;;4.22;3.35;;;28.00;99.90;;;;;;5116269;28;20456;-77
2021/08/21 11:30:10;;;;;;;5.72;3.97;;;28.10;99.90;;;;;;5116592;28;20349;-77
2021/08/21 11:33:03;;;;;;;5.68;4.43;;;28.00;99.90;;;;;;5116121;28;20077;-77
2021/08/21 11:35:34;;;;;;;6.72;4.15;;;28.00;99.90;;;;;;5116213;28;20023;-78
2021/08/21 11:38:06;;;;;;;6.97;4.10;;;28.00;99.90;;;;;;5112728;28;20024;-79
2021/08/21 11:40:45;;;;;;;6.95;3.53;;;28.10;99.90;;;;;;5091475;28;20485;-77
2021/08/21 11:43:21;;;;;;;5.18;3.15;;;28.30;99.90;;;;;;5116082;28;20023;-77
2021/08/21 11:45:46;;;;;;;4.57;3.70;;;28.50;99.90;;;;;;5115973;28;20042;-77
2021/08/21 11:48:13;;;;;;;5.75;3.20;;;28.50;99.90;;;;;;5116037;28;20022;-78
2021/08/21 11:50:41;;;;;;;5.82;3.50;;;28.40;99.90;;;;;;5095113;28;20035;-78
2021/08/21 11:53:18;;;;;;;4.20;3.45;;;28.50;99.90;;;;;;5111150;27;20023;-80
2021/08/21 11:55:44;;;;;;;4.20;3.30;;;28.50;99.90;;;;;;5110115;28;20027;-80
2021/08/21 11:58:11;;;;;;;5.05;3.40;;;28.50;99.90;;;;;;5110533;28;20023;-80
2021/08/21 12:00:40;;;;;;;5.10;3.55;;;28.40;99.90;;;;;;5110467;28;20035;-80
2021/08/21 12:03:09;;;;;;;4.10;3.45;;;28.50;99.90;;;;;;5109200;28;20035;-80
2021/08/21 12:05:43;;;;;;;5.85;4.72;;;28.50;99.90;;;;;;5109402;28;20070;-80
2021/08/21 12:08:14;;;;;;;5.32;4.38;;;28.50;99.90;;;;;;5109894;28;20104;-80
2021/08/21 12:10:46;;;;;;;6.95;4.35;;;28.50;99.90;;;;;;5110420;28;20112;-80
2021/08/21 12:13:13;;;;;;;5.20;3.53;;;28.60;99.90;;;;;;5091187;28;20035;-80
2021/08/21 12:15:39;;;;;;;6.43;3.55;;;28.80;99.90;;;;;;5114127;28;20028;-78
2021/08/21 12:18:07;;;;;;;3.55;3.08;;;28.80;99.90;;;;;;5115437;28;20012;-78
2021/08/21 12:20:36;;;;;;;4.32;3.55;;;28.70;99.90;;;;;;5115367;28;20456;-78
2021/08/21 12:23:02;;;;;;;6.65;3.72;;;28.70;99.90;;;;;;5115218;28;20079;-78
2021/08/21 12:25:48;;;;;;;4.70;3.47;;;28.70;99.20;;;;;;5115415;28;20102;-78
2021/08/21 12:28:15;;;;;;;5.78;4.13;;;28.60;98.50;;;;;;5114971;28;20063;-78
2021/08/21 12:30:52;;;;;;;6.30;3.63;;;28.50;99.00;;;;;;5114957;28;20089;-77
2021/08/21 12:33:17;;;;;;;4.50;3.40;;;28.50;99.90;;;;;;5115931;28;20031;-77
2021/08/21 12:35:43;;;;;;;4.15;3.20;;;28.70;99.70;;;;;;5097545;28;20344;-78
2021/08/21 12:38:08;;;;;;;6.00;3.40;;;28.80;97.90;;;;;;5114890;28;20038;-78
2021/08/21 12:40:34;;;;;;;6.47;3.20;;;28.80;98.10;;;;;;5096921;28;20083;-77
2021/08/21 12:43:05;;;;;;;6.80;3.53;;;28.80;98.20;;;;;;5115395;28;20019;-77
2021/08/21 12:45:40;;;;;;;4.47;3.10;;;29.10;96.00;;;;;;5114663;28;20023;-78
2021/08/21 12:48:10;;;;;;;4.97;4.00;;;29.10;94.40;;;;;;5114751;28;20047;-78
2021/08/21 12:50:42;;;;;;;6.53;3.30;;;29.10;94.80;;;;;;5114449;28;20023;-77
2021/08/21 12:53:08;;;;;;;5.90;3.40;;;28.80;94.20;;;;;;5114630;28;20051;-78
2021/08/21 12:55:34;;;;;;;6.78;3.97;;;28.90;94.30;;;;;;5096332;28;20016;-78